Time;durP1;ratioP1;P1;durP2;ratioP2;P2;SDS_P1;SDS_P2;PMS_P1;PMS_P2;Temp;Humidity;BMP_temperature;BMP_pressure;BME280_temperature;BME280_humidity;BME280_pressure;Samples;Min_cycle;Max_cycle;Signal;HPM_P1;HPM_P2
2022/07/28 00:00:12;;;;;;;;;;;31.50;32.70;;;;;;683151;29;859;-85
2022/07/28 00:00:33;;;;;;;;;;;31.50;32.70;;;;;;685722;28;1425;-84
2022/07/28 00:00:54;;;;;;;;;;;31.50;32.80;;;;;;685765;28;879;-85
2022/07/28 00:01:14;;;;;;;;;;;31.60;32.90;;;;;;685770;28;795;-85
2022/07/28 00:01:35;;;;;;;;;;;31.50;32.70;;;;;;685880;28;874;-85
2022/07/28 00:01:55;;;;;;;;;;;31.60;32.90;;;;;;685672;28;1406;-84
2022/07/28 00:02:16;;;;;;;;;;;31.60;32.90;;;;;;685796;28;1237;-85
2022/07/28 00:02:36;;;;;;;;;;;31.60;32.80;;;;;;685642;28;1633;-85
2022/07/28 00:02:57;;;;;;;;;;;31.50;32.80;;;;;;685884;28;906;-83
2022/07/28 00:03:17;;;;;;;;;;;31.50;32.80;;;;;;685794;28;835;-85
2022/07/28 00:03:38;;;;;;;;;;;31.60;32.90;;;;;;685782;28;969;-83
2022/07/28 00:03:59;;;;;;;;;;;31.50;32.80;;;;;;685763;28;815;-84
2022/07/28 00:04:20;;;;;;;;;;;31.50;32.80;;;;;;683234;29;1360;-85
2022/07/28 00:04:40;;;;;;;;;;;31.50;32.80;;;;;;683128;29;796;-84
2022/07/28 00:05:01;;;;;;;;;;;31.50;32.80;;;;;;682892;29;1911;-84
2022/07/28 00:05:22;;;;;;;;;;;31.60;32.90;;;;;;683138;29;958;-85
2022/07/28 00:05:42;;;;;;;;;;;31.50;32.80;;;;;;682994;29;1315;-84
2022/07/28 00:06:03;;;;;;;;;;;31.50;32.80;;;;;;683289;28;894;-85
2022/07/28 00:06:23;;;;;;;;;;;31.50;32.80;;;;;;685744;28;858;-82
2022/07/28 00:06:44;;;;;;;;;;;31.50;32.90;;;;;;685736;28;894;-84
2022/07/28 00:07:04;;;;;;;;;;;31.60;32.90;;;;;;686007;28;815;-84
2022/07/28 00:07:25;;;;;;;;;;;31.50;32.90;;;;;;685650;28;1341;-85
2022/07/28 00:07:46;;;;;;;;;;;31.60;33.00;;;;;;685527;28;1366;-85
2022/07/28 00:08:08;;;;;;;;;;;31.50;32.90;;;;;;685717;28;1181;-85
2022/07/28 00:08:29;;;;;;;;;;;31.60;32.90;;;;;;685730;28;858;-84
2022/07/28 00:08:50;;;;;;;;;;;31.50;32.80;;;;;;685735;28;851;-84
2022/07/28 00:09:10;;;;;;;;;;;31.50;33.00;;;;;;685607;28;1224;-85
2022/07/28 00:09:31;;;;;;;;;;;31.50;33.00;;;;;;685758;28;570;-84
2022/07/28 00:09:51;;;;;;;;;;;31.50;33.00;;;;;;685191;28;840;-84
2022/07/28 00:10:12;;;;;;;;;;;31.50;33.40;;;;;;683102;29;942;-86
2022/07/28 00:10:32;;;;;;;;;;;31.50;33.40;;;;;;680255;29;1295;-84
2022/07/28 00:10:53;;;;;;;;;;;31.50;33.40;;;;;;680783;29;915;-85
2022/07/28 00:11:14;;;;;;;;;;;31.50;33.00;;;;;;683176;29;883;-85
2022/07/28 00:11:34;;;;;;;;;;;31.50;33.10;;;;;;682902;28;1413;-85
2022/07/28 00:11:55;;;;;;;;;;;31.50;33.50;;;;;;683102;29;819;-85
2022/07/28 00:12:15;;;;;;;;;;;31.50;33.70;;;;;;683367;28;542;-85
2022/07/28 00:12:36;;;;;;;;;;;31.50;33.20;;;;;;685739;28;792;-85
2022/07/28 00:12:58;;;;;;;;;;;31.50;33.30;;;;;;685776;28;922;-85
2022/07/28 00:13:19;;;;;;;;;;;31.50;33.30;;;;;;685650;28;1201;-84
2022/07/28 00:13:39;;;;;;;;;;;31.50;33.50;;;;;;685705;28;1298;-86
2022/07/28 00:14:00;;;;;;;;;;;31.50;33.60;;;;;;685789;28;808;-84
2022/07/28 00:14:21;;;;;;;;;;;31.50;33.40;;;;;;685739;28;882;-84
2022/07/28 00:14:41;;;;;;;;;;;31.50;33.50;;;;;;685684;28;838;-84
2022/07/28 00:15:02;;;;;;;;;;;31.50;33.70;;;;;;685873;28;799;-85
2022/07/28 00:15:23;;;;;;;;;;;31.40;33.60;;;;;;685677;28;1283;-84
2022/07/28 00:15:43;;;;;;;;;;;31.50;33.40;;;;;;685767;28;1006;-85
2022/07/28 00:16:05;;;;;;;;;;;31.50;33.50;;;;;;683032;29;1227;-84
2022/07/28 00:16:26;;;;;;;;;;;31.50;33.60;;;;;;682923;29;1389;-84
2022/07/28 00:16:47;;;;;;;;;;;31.50;33.70;;;;;;682880;29;1473;-84
2022/07/28 00:17:07;;;;;;;;;;;31.50;33.70;;;;;;683146;29;780;-85
2022/07/28 00:17:28;;;;;;;;;;;31.50;33.70;;;;;;683155;29;804;-85
2022/07/28 00:17:48;;;;;;;;;;;31.50;33.70;;;;;;683518;28;847;-85
2022/07/28 00:18:09;;;;;;;;;;;31.50;33.70;;;;;;685701;28;1106;-84
2022/07/28 00:18:30;;;;;;;;;;;31.50;33.70;;;;;;682654;29;1152;-85
2022/07/28 00:18:50;;;;;;;;;;;31.50;33.70;;;;;;680336;29;1145;-84
2022/07/28 00:19:11;;;;;;;;;;;31.50;33.70;;;;;;680541;29;974;-85
2022/07/28 00:19:32;;;;;;;;;;;31.50;33.70;;;;;;680445;29;843;-85
2022/07/28 00:19:52;;;;;;;;;;;31.50;33.80;;;;;;680254;29;1461;-85
2022/07/28 00:20:13;;;;;;;;;;;31.40;33.70;;;;;;680835;29;1289;-84
2022/07/28 00:20:33;;;;;;;;;;;31.50;33.80;;;;;;680351;29;1226;-84
2022/07/28 00:20:55;;;;;;;;;;;31.40;34.00;;;;;;680278;29;1266;-84
2022/07/28 00:21:15;;;;;;;;;;;31.40;33.80;;;;;;680332;29;1313;-84
2022/07/28 00:21:36;;;;;;;;;;;31.50;34.00;;;;;;680474;29;796;-85
2022/07/28 00:21:57;;;;;;;;;;;31.50;34.10;;;;;;680494;29;820;-85
2022/07/28 00:22:17;;;;;;;;;;;31.40;33.80;;;;;;680799;29;780;-85
2022/07/28 00:22:41;;;;;;;;;;;31.50;33.90;;;;;;683066;29;816;-85
2022/07/28 00:23:02;;;;;;;;;;;31.50;33.90;;;;;;683899;28;811;-85
2022/07/28 00:23:23;;;;;;;;;;;31.50;33.90;;;;;;685654;28;1402;-85
2022/07/28 00:23:43;;;;;;;;;;;31.40;34.00;;;;;;682932;29;1389;-85
2022/07/28 00:24:04;;;;;;;;;;;31.50;34.30;;;;;;683016;29;1382;-84
2022/07/28 00:24:25;;;;;;;;;;;31.50;34.10;;;;;;683045;29;1184;-84
2022/07/28 00:24:45;;;;;;;;;;;31.40;34.00;;;;;;683139;29;835;-85
2022/07/28 00:25:06;;;;;;;;;;;31.50;34.20;;;;;;683044;28;1962;-85
2022/07/28 00:25:27;;;;;;;;;;;31.40;34.30;;;;;;683394;28;1415;-85
2022/07/28 00:25:47;;;;;;;;;;;31.40;34.30;;;;;;685299;28;1110;-84
2022/07/28 00:26:08;;;;;;;;;;;31.40;34.30;;;;;;683367;28;796;-85
2022/07/28 00:26:29;;;;;;;;;;;31.40;34.30;;;;;;685712;28;1267;-84
2022/07/28 00:26:49;;;;;;;;;;;31.40;34.30;;;;;;685739;28;949;-85
2022/07/28 00:27:10;;;;;;;;;;;31.40;34.40;;;;;;685650;28;1338;-83
2022/07/28 00:27:30;;;;;;;;;;;31.40;34.50;;;;;;685795;28;1186;-84
2022/07/28 00:27:51;;;;;;;;;;;31.50;34.50;;;;;;685759;28;863;-83
2022/07/28 00:28:11;;;;;;;;;;;31.40;34.40;;;;;;682801;29;1306;-84
2022/07/28 00:28:32;;;;;;;;;;;31.40;34.50;;;;;;682946;29;1104;-84
2022/07/28 00:28:52;;;;;;;;;;;31.50;34.60;;;;;;683052;29;879;-84
2022/07/28 00:29:13;;;;;;;;;;;31.40;34.50;;;;;;682983;28;1321;-84
2022/07/28 00:29:34;;;;;;;;;;;31.40;34.60;;;;;;682733;29;852;-84
2022/07/28 00:29:54;;;;;;;;;;;31.40;34.60;;;;;;683350;28;824;-84
2022/07/28 00:30:15;;;;;;;;;;;31.50;34.70;;;;;;685505;28;891;-84
2022/07/28 00:30:35;;;;;;;;;;;31.40;34.60;;;;;;683075;29;827;-84
2022/07/28 00:30:56;;;;;;;;;;;31.50;34.70;;;;;;680329;29;1305;-85
2022/07/28 00:31:17;;;;;;;;;;;31.40;34.60;;;;;;680628;29;1314;-85
2022/07/28 00:31:37;;;;;;;;;;;31.40;34.60;;;;;;682634;29;1278;-85
2022/07/28 00:31:58;;;;;;;;;;;31.40;34.90;;;;;;683068;29;792;-83
2022/07/28 00:32:19;;;;;;;;;;;31.40;34.80;;;;;;682637;29;1406;-84
2022/07/28 00:32:40;;;;;;;;;;;31.40;34.80;;;;;;683269;28;1211;-84
2022/07/28 00:33:00;;;;;;;;;;;31.40;34.90;;;;;;685750;28;884;-83
2022/07/28 00:33:21;;;;;;;;;;;31.40;34.90;;;;;;685329;28;834;-83
2022/07/28 00:33:42;;;;;;;;;;;31.40;35.00;;;;;;683122;29;882;-84
2022/07/28 00:34:02;;;;;;;;;;;31.40;35.00;;;;;;680394;29;1381;-84
2022/07/28 00:34:23;;;;;;;;;;;31.40;35.00;;;;;;680613;29;1499;-84
2022/07/28 00:34:43;;;;;;;;;;;31.40;35.10;;;;;;683124;29;847;-84
2022/07/28 00:35:04;;;;;;;;;;;31.40;35.10;;;;;;685662;28;1226;-84
2022/07/28 00:35:25;;;;;;;;;;;31.40;35.20;;;;;;685764;28;862;-84
2022/07/28 00:35:45;;;;;;;;;;;31.40;35.20;;;;;;685648;28;1300;-84
2022/07/28 00:36:09;;;;;;;;;;;31.40;35.20;;;;;;685300;28;942;-84
2022/07/28 00:36:29;;;;;;;;;;;31.40;36.20;;;;;;683008;29;1359;-85
2022/07/28 00:36:50;;;;;;;;;;;31.40;35.50;;;;;;683065;29;768;-84
2022/07/28 00:37:10;;;;;;;;;;;31.40;35.40;;;;;;685629;28;1234;-84
2022/07/28 00:37:31;;;;;;;;;;;31.40;35.40;;;;;;685167;28;866;-84
2022/07/28 00:37:52;;;;;;;;;;;31.40;35.40;;;;;;685687;28;1397;-84
2022/07/28 00:38:12;;;;;;;;;;;31.40;36.50;;;;;;685599;28;1338;-84
2022/07/28 00:38:33;;;;;;;;;;;31.40;35.40;;;;;;685729;28;938;-84
2022/07/28 00:38:53;;;;;;;;;;;31.40;35.40;;;;;;681888;29;1339;-84
2022/07/28 00:39:14;;;;;;;;;;;31.40;35.50;;;;;;680466;29;926;-84
2022/07/28 00:39:34;;;;;;;;;;;31.40;35.40;;;;;;680587;29;1329;-84
2022/07/28 00:39:55;;;;;;;;;;;31.40;35.50;;;;;;683000;29;795;-84
2022/07/28 00:40:16;;;;;;;;;;;31.40;35.50;;;;;;682978;29;1204;-84
2022/07/28 00:41:18;;;;;;;;;;;31.40;35.50;;;;;;685832;28;590;-84
2022/07/28 00:41:39;;;;;;;;;;;31.40;35.60;;;;;;683035;29;1406;-84
2022/07/28 00:42:00;;;;;;;;;;;31.40;35.60;;;;;;682702;28;775;-83
2022/07/28 00:42:20;;;;;;;;;;;31.40;35.60;;;;;;680690;29;1207;-84
2022/07/28 00:42:41;;;;;;;;;;;31.40;35.60;;;;;;683371;28;859;-84
2022/07/28 00:43:01;;;;;;;;;;;31.30;35.60;;;;;;683074;29;866;-84
2022/07/28 00:43:22;;;;;;;;;;;31.40;35.70;;;;;;683039;28;1385;-82
2022/07/28 00:43:44;;;;;;;;;;;31.40;35.60;;;;;;685819;28;970;-83
2022/07/28 00:44:05;;;;;;;;;;;31.40;36.70;;;;;;685541;28;1103;-82
2022/07/28 00:44:25;;;;;;;;;;;31.40;36.80;;;;;;685341;28;845;-84
2022/07/28 00:44:46;;;;;;;;;;;31.40;36.80;;;;;;683028;29;920;-84
2022/07/28 00:45:07;;;;;;;;;;;31.40;35.70;;;;;;682978;29;1956;-84
2022/07/28 00:45:27;;;;;;;;;;;31.40;35.80;;;;;;680319;29;1563;-84
2022/07/28 00:45:48;;;;;;;;;;;31.40;35.80;;;;;;680602;29;1008;-84
2022/07/28 00:46:09;;;;;;;;;;;31.40;35.80;;;;;;682990;29;1124;-83
2022/07/28 00:46:29;;;;;;;;;;;31.40;35.80;;;;;;682853;29;1453;-83
2022/07/28 00:46:50;;;;;;;;;;;31.40;37.00;;;;;;683510;29;1159;-83
2022/07/28 00:47:11;;;;;;;;;;;31.40;35.80;;;;;;683868;28;807;-83
2022/07/28 00:47:31;;;;;;;;;;;31.40;37.00;;;;;;686327;28;708;-83
2022/07/28 00:47:52;;;;;;;;;;;31.40;35.80;;;;;;686213;28;851;-83
2022/07/28 00:48:12;;;;;;;;;;;31.40;35.90;;;;;;683273;28;1197;-83
2022/07/28 00:48:36;;;;;;;;;;;31.40;35.90;;;;;;681309;29;870;-84
2022/07/28 00:48:56;;;;;;;;;;;31.40;35.90;;;;;;683530;29;882;-85
2022/07/28 00:49:17;;;;;;;;;;;31.40;36.00;;;;;;683510;29;1287;-84
2022/07/28 00:49:38;;;;;;;;;;;31.40;36.00;;;;;;683512;29;1437;-84
2022/07/28 00:49:58;;;;;;;;;;;31.40;36.00;;;;;;684085;28;1317;-83
2022/07/28 00:50:19;;;;;;;;;;;31.40;36.00;;;;;;686191;28;882;-84
2022/07/28 00:50:39;;;;;;;;;;;31.40;36.00;;;;;;686159;28;1289;-84
2022/07/28 00:51:00;;;;;;;;;;;31.40;36.00;;;;;;685979;28;866;-84
2022/07/28 00:51:22;;;;;;;;;;;31.40;36.00;;;;;;683386;29;1231;-83
2022/07/28 00:51:43;;;;;;;;;;;31.40;37.00;;;;;;686211;28;1288;-84
2022/07/28 00:52:04;;;;;;;;;;;31.40;36.00;;;;;;683473;29;1431;-84
2022/07/28 00:52:25;;;;;;;;;;;31.40;37.00;;;;;;683537;28;882;-85
2022/07/28 00:52:45;;;;;;;;;;;31.40;37.10;;;;;;683475;29;1247;-84
2022/07/28 00:53:06;;;;;;;;;;;31.40;37.10;;;;;;683568;29;933;-85
2022/07/28 00:53:28;;;;;;;;;;;31.40;36.10;;;;;;683617;29;791;-85
2022/07/28 00:53:48;;;;;;;;;;;31.40;36.10;;;;;;680806;29;1415;-84
2022/07/28 00:54:09;;;;;;;;;;;31.40;36.20;;;;;;678059;29;1462;-83
2022/07/28 00:54:29;;;;;;;;;;;31.40;36.20;;;;;;678607;29;851;-84
2022/07/28 00:54:50;;;;;;;;;;;31.40;36.20;;;;;;680948;29;800;-83
2022/07/28 00:55:11;;;;;;;;;;;31.40;36.30;;;;;;680982;29;796;-83
2022/07/28 00:55:31;;;;;;;;;;;31.40;36.20;;;;;;678517;29;1480;-83
2022/07/28 00:55:52;;;;;;;;;;;31.40;36.20;;;;;;681183;29;1352;-83
2022/07/28 00:56:13;;;;;;;;;;;31.40;36.30;;;;;;683453;29;1370;-83
2022/07/28 00:56:34;;;;;;;;;;;31.40;36.20;;;;;;683452;28;1242;-83
2022/07/28 00:56:54;;;;;;;;;;;31.40;37.40;;;;;;683569;29;875;-83
2022/07/28 00:57:15;;;;;;;;;;;31.40;36.30;;;;;;683617;29;926;-84
2022/07/28 00:57:35;;;;;;;;;;;31.40;36.30;;;;;;683891;28;839;-84
2022/07/28 00:57:56;;;;;;;;;;;31.40;36.30;;;;;;682778;29;1320;-82
2022/07/28 00:58:17;;;;;;;;;;;31.40;36.30;;;;;;681227;29;796;-85
2022/07/28 00:58:38;;;;;;;;;;;31.40;36.30;;;;;;683444;29;1203;-83
2022/07/28 00:58:58;;;;;;;;;;;31.40;36.30;;;;;;683581;29;1676;-83
2022/07/28 00:59:19;;;;;;;;;;;31.40;36.40;;;;;;683463;29;1475;-83
2022/07/28 00:59:39;;;;;;;;;;;31.40;36.40;;;;;;683787;28;1172;-83
2022/07/28 01:00:00;;;;;;;;;;;31.40;36.50;;;;;;686125;28;1305;-83
2022/07/28 01:00:20;;;;;;;;;;;31.40;36.40;;;;;;683159;29;1198;-84
2022/07/28 01:00:41;;;;;;;;;;;31.40;36.50;;;;;;680875;29;839;-83
2022/07/28 01:01:03;;;;;;;;;;;31.40;36.50;;;;;;680902;29;796;-83
2022/07/28 01:01:24;;;;;;;;;;;31.40;36.50;;;;;;678216;29;1268;-83
2022/07/28 01:01:44;;;;;;;;;;;31.40;36.50;;;;;;678822;29;788;-83
2022/07/28 01:02:06;;;;;;;;;;;31.40;36.50;;;;;;681364;29;1461;-84
2022/07/28 01:02:27;;;;;;;;;;;31.40;36.50;;;;;;680779;29;1205;-84
2022/07/28 01:02:48;;;;;;;;;;;31.40;37.50;;;;;;680918;29;885;-84
2022/07/28 01:03:08;;;;;;;;;;;31.40;36.50;;;;;;680948;29;866;-84
2022/07/28 01:03:29;;;;;;;;;;;31.40;36.50;;;;;;680979;29;918;-84
2022/07/28 01:03:58;;;;;;;;;;;31.40;36.50;;;;;;681424;29;886;-84
2022/07/28 01:04:19;;;;;;;;;;;31.40;36.60;;;;;;685073;28;858;-83
2022/07/28 01:04:40;;;;;;;;;;;31.40;37.60;;;;;;686387;28;815;-83
2022/07/28 01:05:01;;;;;;;;;;;31.30;36.50;;;;;;686288;28;1906;-84
2022/07/28 01:05:23;;;;;;;;;;;31.30;36.60;;;;;;683480;29;1088;-84
2022/07/28 01:05:59;;;;;;;;;;;31.30;36.60;;;;;;683607;29;835;-83
2022/07/28 01:06:22;;;;;;;;;;;31.40;36.80;;;;;;683354;29;1429;-83
2022/07/28 01:07:01;;;;;;;;;;;31.30;36.70;;;;;;683438;29;1237;-83
2022/07/28 01:07:37;;;;;;;;;;;31.30;36.70;;;;;;685897;28;812;-83
2022/07/28 01:08:05;;;;;;;;;;;31.40;36.80;;;;;;683492;29;1230;-83
2022/07/28 01:08:31;;;;;;;;;;;31.30;36.80;;;;;;683494;29;958;-85
2022/07/28 01:08:56;;;;;;;;;;;31.30;37.80;;;;;;683457;29;824;-84
2022/07/28 01:09:20;;;;;;;;;;;31.40;37.90;;;;;;683481;29;899;-83
2022/07/28 01:09:45;;;;;;;;;;;31.30;37.70;;;;;;683649;28;1280;-84
2022/07/28 01:10:24;;;;;;;;;;;31.30;37.80;;;;;;686237;28;803;-84
2022/07/28 01:10:58;;;;;;;;;;;31.30;37.80;;;;;;686132;28;902;-83
2022/07/28 01:11:25;;;;;;;;;;;31.30;36.90;;;;;;686077;28;1410;-83
2022/07/28 01:12:03;;;;;;;;;;;31.30;37.90;;;;;;683024;29;1254;-83
2022/07/28 01:12:27;;;;;;;;;;;31.30;37.90;;;;;;683496;29;1364;-83
2022/07/28 01:12:49;;;;;;;;;;;31.30;37.90;;;;;;683408;29;1297;-84
2022/07/28 01:13:15;;;;;;;;;;;31.30;37.90;;;;;;683568;29;973;-84
2022/07/28 01:13:35;;;;;;;;;;;31.30;37.00;;;;;;684624;28;756;-84
2022/07/28 01:14:19;;;;;;;;;;;31.30;37.00;;;;;;683472;29;1220;-85
2022/07/28 01:14:46;;;;;;;;;;;31.30;37.10;;;;;;683148;29;1222;-84
2022/07/28 01:15:15;;;;;;;;;;;31.30;38.00;;;;;;683504;28;1205;-82
2022/07/28 01:15:37;;;;;;;;;;;31.30;37.10;;;;;;683252;28;1440;-84
2022/07/28 01:16:01;;;;;;;;;;;31.30;37.00;;;;;;686166;28;890;-84
2022/07/28 01:16:22;;;;;;;;;;;31.30;37.00;;;;;;686243;28;886;-83
2022/07/28 01:16:47;;;;;;;;;;;31.30;37.00;;;;;;686123;28;803;-83
2022/07/28 01:17:10;;;;;;;;;;;31.30;37.00;;;;;;683603;28;971;-84
2022/07/28 01:17:47;;;;;;;;;;;31.30;37.00;;;;;;686089;28;1449;-83
2022/07/28 01:18:15;;;;;;;;;;;31.30;38.00;;;;;;683447;29;919;-82
2022/07/28 01:18:46;;;;;;;;;;;31.40;38.10;;;;;;683518;29;862;-85
2022/07/28 01:19:10;;;;;;;;;;;31.40;38.10;;;;;;686115;28;1071;-84
2022/07/28 01:19:46;;;;;;;;;;;31.30;37.10;;;;;;686202;28;934;-84
2022/07/28 01:20:24;;;;;;;;;;;31.40;38.10;;;;;;686240;28;882;-84
2022/07/28 01:21:23;;;;;;;;;;;31.40;37.20;;;;;;686174;28;834;-84
2022/07/28 01:21:44;;;;;;;;;;;31.40;38.10;;;;;;675454;29;1225;-84
2022/07/28 01:22:07;;;;;;;;;;;31.30;38.10;;;;;;675471;29;1320;-84
2022/07/28 01:22:31;;;;;;;;;;;31.30;38.10;;;;;;675525;29;805;-84
2022/07/28 01:23:03;;;;;;;;;;;31.30;38.10;;;;;;675639;29;879;-84
2022/07/28 01:23:23;;;;;;;;;;;31.30;38.10;;;;;;675631;29;887;-83
2022/07/28 01:24:04;;;;;;;;;;;31.30;37.20;;;;;;675307;29;1617;-84
2022/07/28 01:24:26;;;;;;;;;;;31.30;38.30;;;;;;672631;29;1226;-83
2022/07/28 01:25:04;;;;;;;;;;;31.30;38.20;;;;;;672954;29;804;-83
2022/07/28 01:25:27;;;;;;;;;;;31.30;38.20;;;;;;672910;29;1093;-84
2022/07/28 01:25:50;;;;;;;;;;;31.30;38.20;;;;;;675444;29;1333;-84
2022/07/28 01:26:29;;;;;;;;;;;31.30;38.20;;;;;;676112;29;1117;-83
2022/07/28 01:26:55;;;;;;;;;;;31.30;38.30;;;;;;678156;29;816;-84
2022/07/28 01:27:37;;;;;;;;;;;31.30;38.30;;;;;;675381;29;1278;-84
2022/07/28 01:28:07;;;;;;;;;;;31.30;38.20;;;;;;675534;29;839;-84
2022/07/28 01:28:45;;;;;;;;;;;31.30;37.30;;;;;;672854;29;1522;-84
2022/07/28 01:29:06;;;;;;;;;;;31.30;38.20;;;;;;674054;29;1426;-84
2022/07/28 01:29:33;;;;;;;;;;;31.30;37.30;;;;;;675561;29;1229;-84
2022/07/28 01:30:01;;;;;;;;;;;31.30;37.30;;;;;;675536;29;906;-84
2022/07/28 01:30:34;;;;;;;;;;;31.40;38.40;;;;;;675410;29;1464;-83
2022/07/28 01:31:01;;;;;;;;;;;31.40;38.30;;;;;;675566;29;852;-84
2022/07/28 01:31:23;;;;;;;;;;;31.30;37.30;;;;;;674717;29;1208;-84
2022/07/28 01:31:47;;;;;;;;;;;31.40;38.30;;;;;;675306;29;1383;-83
2022/07/28 01:32:22;;;;;;;;;;;31.30;37.40;;;;;;672782;29;1250;-84
2022/07/28 01:32:45;;;;;;;;;;;31.30;38.30;;;;;;672967;29;828;-84
2022/07/28 01:33:13;;;;;;;;;;;31.30;37.40;;;;;;673126;29;1576;-84
2022/07/28 01:33:34;;;;;;;;;;;;;;;;;;675507;29;1407;-83
2022/07/28 01:33:59;;;;;;;;;;;31.30;37.40;;;;;;675380;29;1409;-84
2022/07/28 01:34:26;;;;;;;;;;;31.30;37.40;;;;;;675456;29;1068;-84
2022/07/28 01:34:55;;;;;;;;;;;31.30;37.40;;;;;;675554;29;848;-84
2022/07/28 01:35:19;;;;;;;;;;;31.30;37.50;;;;;;672862;29;1371;-84
2022/07/28 01:35:57;;;;;;;;;;;31.30;37.50;;;;;;670790;29;1371;-84
2022/07/28 01:36:21;;;;;;;;;;;31.30;37.50;;;;;;673002;29;729;-84
2022/07/28 01:36:45;;;;;;;;;;;31.20;37.50;;;;;;672832;29;758;-83
2022/07/28 01:37:26;;;;;;;;;;;31.30;37.60;;;;;;674040;29;780;-84
2022/07/28 01:37:48;;;;;;;;;;;31.30;37.60;;;;;;677588;29;1201;-84
2022/07/28 01:38:10;;;;;;;;;;;31.30;37.60;;;;;;678139;29;705;-84
2022/07/28 01:38:31;;;;;;;;;;;31.30;37.70;;;;;;677957;29;808;-84
2022/07/28 01:38:52;;;;;;;;;;;31.30;37.60;;;;;;678019;29;1379;-83
2022/07/28 01:39:13;;;;;;;;;;;31.30;37.60;;;;;;678116;29;784;-83
2022/07/28 01:39:36;;;;;;;;;;;31.30;37.70;;;;;;677200;29;1176;-84
2022/07/28 01:39:58;;;;;;;;;;;31.20;37.60;;;;;;675469;29;1416;-83
2022/07/28 01:40:21;;;;;;;;;;;31.20;37.70;;;;;;675534;29;908;-83
2022/07/28 01:40:44;;;;;;;;;;;31.30;37.80;;;;;;673807;29;1421;-84
2022/07/28 01:41:08;;;;;;;;;;;31.20;38.70;;;;;;672820;29;1595;-83
2022/07/28 01:41:31;;;;;;;;;;;31.20;37.80;;;;;;673065;29;914;-83
2022/07/28 01:41:53;;;;;;;;;;;31.20;37.80;;;;;;672876;29;1261;-83
2022/07/28 01:42:14;;;;;;;;;;;31.20;37.70;;;;;;672911;29;879;-82
2022/07/28 01:42:37;;;;;;;;;;;31.20;37.70;;;;;;674600;29;847;-85
2022/07/28 01:43:00;;;;;;;;;;;31.20;37.80;;;;;;675459;29;978;-84
2022/07/28 01:43:23;;;;;;;;;;;31.20;37.80;;;;;;675639;29;1330;-84
2022/07/28 01:43:46;;;;;;;;;;;31.20;37.70;;;;;;674214;29;1357;-83
2022/07/28 01:44:09;;;;;;;;;;;31.20;37.70;;;;;;675541;29;726;-84
2022/07/28 01:44:31;;;;;;;;;;;31.20;38.80;;;;;;675607;29;832;-84
2022/07/28 01:44:52;;;;;;;;;;;31.20;38.80;;;;;;675306;29;1251;-83
2022/07/28 01:45:14;;;;;;;;;;;31.20;37.80;;;;;;675362;29;1962;-83
2022/07/28 01:45:36;;;;;;;;;;;31.20;37.80;;;;;;676811;29;1011;-83
2022/07/28 01:45:58;;;;;;;;;;;31.20;37.80;;;;;;678074;29;836;-84
2022/07/28 01:46:19;;;;;;;;;;;31.20;37.80;;;;;;678122;29;784;-84
2022/07/28 01:46:40;;;;;;;;;;;31.20;37.80;;;;;;677947;29;1329;-83
2022/07/28 01:47:06;;;;;;;;;;;31.20;37.90;;;;;;678029;29;931;-84
2022/07/28 01:47:30;;;;;;;;;;;31.20;37.90;;;;;;678052;29;1255;-84
2022/07/28 01:47:53;;;;;;;;;;;31.20;37.90;;;;;;677992;29;1100;-83
2022/07/28 01:48:15;;;;;;;;;;;31.20;37.90;;;;;;675416;29;1097;-84
2022/07/28 01:48:38;;;;;;;;;;;31.20;37.90;;;;;;675537;29;895;-84
2022/07/28 01:49:01;;;;;;;;;;;31.20;37.80;;;;;;675429;29;914;-84
2022/07/28 01:49:22;;;;;;;;;;;31.20;37.80;;;;;;672774;29;1137;-84
2022/07/28 01:49:44;;;;;;;;;;;31.20;37.80;;;;;;671477;29;1232;-84
2022/07/28 01:50:07;;;;;;;;;;;31.20;38.00;;;;;;671598;29;777;-83
2022/07/28 01:50:28;;;;;;;;;;;31.20;37.90;;;;;;672807;29;1410;-82
2022/07/28 01:50:50;;;;;;;;;;;31.20;37.80;;;;;;672958;29;972;-84
2022/07/28 01:51:11;;;;;;;;;;;31.20;37.90;;;;;;674048;29;813;-83
2022/07/28 01:51:33;;;;;;;;;;;31.10;37.90;;;;;;676430;29;1416;-83
2022/07/28 01:51:54;;;;;;;;;;;31.20;37.90;;;;;;675347;29;1358;-83
2022/07/28 01:52:15;;;;;;;;;;;31.20;38.00;;;;;;675412;29;1330;-83
2022/07/28 01:52:37;;;;;;;;;;;31.20;38.00;;;;;;675536;29;923;-85
2022/07/28 01:52:57;;;;;;;;;;;31.20;38.00;;;;;;675512;29;860;-84
2022/07/28 01:53:19;;;;;;;;;;;31.20;38.00;;;;;;675450;29;776;-83
2022/07/28 01:53:40;;;;;;;;;;;31.20;38.00;;;;;;682744;28;943;-83
2022/07/28 01:54:01;;;;;;;;;;;31.20;38.00;;;;;;686258;28;883;-83
2022/07/28 01:54:23;;;;;;;;;;;31.20;37.90;;;;;;683340;29;1202;-82
2022/07/28 01:54:45;;;;;;;;;;;31.20;38.00;;;;;;683398;29;796;-84
2022/07/28 01:55:06;;;;;;;;;;;30.30;37.30;;;;;;683320;29;1120;-84
2022/07/28 01:55:27;;;;;;;;;;;31.10;37.90;;;;;;683379;28;779;-84
2022/07/28 01:55:49;;;;;;;;;;;31.20;38.00;;;;;;683321;29;812;-84
2022/07/28 01:56:10;;;;;;;;;;;31.20;38.00;;;;;;684360;28;1292;-84
2022/07/28 01:56:32;;;;;;;;;;;31.20;38.00;;;;;;682648;29;1353;-83
2022/07/28 01:56:53;;;;;;;;;;;31.20;38.00;;;;;;682612;29;1323;-84
2022/07/28 01:57:14;;;;;;;;;;;31.10;37.90;;;;;;683213;28;1210;-83
2022/07/28 01:57:36;;;;;;;;;;;31.10;38.00;;;;;;682103;28;1284;-85
2022/07/28 01:57:56;;;;;;;;;;;31.10;38.00;;;;;;681540;29;819;-84
2022/07/28 01:58:17;;;;;;;;;;;31.10;38.00;;;;;;684165;28;831;-84
2022/07/28 01:58:39;;;;;;;;;;;31.10;38.00;;;;;;686100;28;894;-84
2022/07/28 01:59:04;;;;;;;;;;;31.20;38.10;;;;;;683331;29;1325;-84
2022/07/28 01:59:27;;;;;;;;;;;31.20;38.10;;;;;;683299;29;1309;-83
2022/07/28 01:59:47;;;;;;;;;;;31.20;38.20;;;;;;683448;28;851;-83
2022/07/28 02:00:12;;;;;;;;;;;31.10;38.10;;;;;;683445;29;846;-84
2022/07/28 02:00:34;;;;;;;;;;;31.20;38.00;;;;;;683254;29;1643;-83
2022/07/28 02:00:55;;;;;;;;;;;31.20;38.10;;;;;;685200;28;1460;-84
2022/07/28 02:01:16;;;;;;;;;;;31.10;38.00;;;;;;681944;29;1420;-84
2022/07/28 02:01:41;;;;;;;;;;;31.10;38.00;;;;;;680662;29;1127;-83
2022/07/28 02:02:02;;;;;;;;;;;31.10;38.00;;;;;;680633;29;1222;-83
2022/07/28 02:02:23;;;;;;;;;;;31.10;38.00;;;;;;681824;29;1194;-84
2022/07/28 02:02:45;;;;;;;;;;;31.10;38.00;;;;;;682262;29;1143;-83
2022/07/28 02:03:07;;;;;;;;;;;31.10;38.10;;;;;;681945;29;819;-84
2022/07/28 02:03:28;;;;;;;;;;;31.10;38.10;;;;;;680667;29;1266;-84
2022/07/28 02:03:49;;;;;;;;;;;31.10;38.10;;;;;;681591;29;796;-83
2022/07/28 02:04:10;;;;;;;;;;;31.10;38.10;;;;;;682577;29;942;-84
2022/07/28 02:04:32;;;;;;;;;;;31.10;38.10;;;;;;683293;29;1204;-83
2022/07/28 02:04:54;;;;;;;;;;;31.10;38.10;;;;;;683294;28;1548;-83
2022/07/28 02:05:16;;;;;;;;;;;31.10;38.20;;;;;;684288;28;1911;-84
2022/07/28 02:05:38;;;;;;;;;;;31.10;38.20;;;;;;686026;28;1405;-84
2022/07/28 02:06:01;;;;;;;;;;;31.10;38.20;;;;;;686022;28;827;-83
2022/07/28 02:06:22;;;;;;;;;;;31.10;38.20;;;;;;684759;28;855;-83
2022/07/28 02:06:44;;;;;;;;;;;31.10;38.20;;;;;;684620;28;1382;-83
2022/07/28 02:07:07;;;;;;;;;;;31.10;38.20;;;;;;683245;29;1519;-84
2022/07/28 02:07:28;;;;;;;;;;;31.10;38.30;;;;;;683432;29;836;-84
2022/07/28 02:07:49;;;;;;;;;;;31.10;38.20;;;;;;683277;29;1193;-83
2022/07/28 02:08:11;;;;;;;;;;;31.10;38.20;;;;;;683460;28;792;-84
2022/07/28 02:08:32;;;;;;;;;;;31.10;38.20;;;;;;683360;29;835;-84
2022/07/28 02:08:53;;;;;;;;;;;31.10;38.20;;;;;;684292;28;859;-83
2022/07/28 02:09:15;;;;;;;;;;;31.10;38.20;;;;;;686123;28;807;-83
2022/07/28 02:09:35;;;;;;;;;;;31.10;38.20;;;;;;685170;28;1297;-84
2022/07/28 02:09:57;;;;;;;;;;;31.10;38.20;;;;;;683405;29;875;-82
2022/07/28 02:10:18;;;;;;;;;;;31.10;38.20;;;;;;684111;28;898;-83
2022/07/28 02:10:40;;;;;;;;;;;31.10;39.20;;;;;;683382;29;1337;-83
2022/07/28 02:11:40;;;;;;;;;;;31.10;39.30;;;;;;683384;29;657;-84
2022/07/28 02:12:01;;;;;;;;;;;31.20;39.20;;;;;;683425;29;772;-84
2022/07/28 02:12:23;;;;;;;;;;;31.10;39.20;;;;;;680915;29;1079;-84
2022/07/28 02:12:45;;;;;;;;;;;31.10;39.30;;;;;;683362;28;1143;-84
2022/07/28 02:13:06;;;;;;;;;;;31.10;39.30;;;;;;683482;29;834;-83
2022/07/28 02:13:27;;;;;;;;;;;31.10;38.30;;;;;;683474;29;795;-83
2022/07/28 02:13:48;;;;;;;;;;;31.10;38.30;;;;;;683460;29;820;-85
2022/07/28 02:14:13;;;;;;;;;;;31.10;39.30;;;;;;684100;28;1305;-83
2022/07/28 02:14:35;;;;;;;;;;;31.10;39.30;;;;;;684692;28;843;-84
2022/07/28 02:14:56;;;;;;;;;;;31.10;39.30;;;;;;683354;29;1236;-84
2022/07/28 02:15:17;;;;;;;;;;;31.10;38.30;;;;;;683385;29;903;-84
2022/07/28 02:15:39;;;;;;;;;;;31.10;38.40;;;;;;683313;29;982;-84
2022/07/28 02:16:02;;;;;;;;;;;31.10;38.40;;;;;;685974;28;808;-84
2022/07/28 02:16:24;;;;;;;;;;;31.10;38.40;;;;;;685998;28;851;-84
2022/07/28 02:16:47;;;;;;;;;;;31.10;38.40;;;;;;685929;28;1114;-84
2022/07/28 02:17:09;;;;;;;;;;;31.10;38.40;;;;;;682868;29;1248;-84
2022/07/28 02:17:32;;;;;;;;;;;31.10;39.40;;;;;;683342;29;1565;-84
2022/07/28 02:17:53;;;;;;;;;;;31.10;39.40;;;;;;684354;28;1207;-83
2022/07/28 02:18:14;;;;;;;;;;;31.10;39.20;;;;;;683365;29;978;-84